Time;durP1;ratioP1;P1;durP2;ratioP2;P2;SDS_P1;SDS_P2;PMS_P1;PMS_P2;Temp;Humidity;BMP_temperature;BMP_pressure;BME280_temperature;BME280_humidity;BME280_pressure;Samples;Min_cycle;Max_cycle;Signal;HPM_P1;HPM_P2
2023/07/09 00:00:26;;;;;;;2.90;0.60;;;15.80;99.90;;;;;;4994326;28;20235;-76
2023/07/09 00:02:58;;;;;;;3.05;0.80;;;15.80;99.90;;;;;;4989105;28;20205;-76
2023/07/09 00:05:29;;;;;;;4.95;0.65;;;15.90;99.90;;;;;;4985739;28;20310;-76
2023/07/09 00:08:02;;;;;;;1.52;0.60;;;15.90;99.90;;;;;;4992346;28;20196;-76
2023/07/09 00:10:34;;;;;;;3.63;0.57;;;16.00;99.90;;;;;;4988546;28;20283;-76
2023/07/09 00:13:06;;;;;;;1.45;0.40;;;16.10;99.90;;;;;;4983400;28;20235;-76
2023/07/09 00:15:37;;;;;;;2.90;0.70;;;16.20;99.90;;;;;;4985129;28;20200;-77
2023/07/09 00:18:08;;;;;;;2.22;0.55;;;16.20;99.90;;;;;;4991502;28;20207;-76
2023/07/09 00:20:41;;;;;;;2.80;1.08;;;16.20;99.90;;;;;;4988188;28;20207;-77
2023/07/09 00:23:16;;;;;;;2.97;0.63;;;16.40;99.90;;;;;;4992000;28;20192;-77
2023/07/09 00:25:48;;;;;;;3.42;0.70;;;16.40;99.90;;;;;;4994067;28;20277;-77
2023/07/09 00:28:20;;;;;;;1.75;0.60;;;16.50;99.90;;;;;;4991937;28;20291;-79
2023/07/09 00:30:52;;;;;;;0.95;0.50;;;16.60;99.90;;;;;;4992032;28;20199;-76
2023/07/09 00:33:27;;;;;;;1.48;0.50;;;16.60;99.90;;;;;;4993428;28;20191;-76
2023/07/09 00:35:59;;;;;;;1.08;0.38;;;16.60;99.90;;;;;;4991605;28;20298;-78
2023/07/09 00:38:38;;;;;;;0.45;0.32;;;16.60;99.90;;;;;;4986610;28;20197;-77
2023/07/09 00:41:22;;;;;;;1.20;0.47;;;16.60;99.90;;;;;;4990112;28;20278;-76
2023/07/09 00:43:55;;;;;;;0.50;0.30;;;16.60;99.90;;;;;;4991447;28;20214;-75
2023/07/09 00:47:02;;;;;;;0.90;0.40;;;16.70;99.90;;;;;;4989644;28;20216;-76
2023/07/09 00:49:36;;;;;;;0.82;0.40;;;16.80;99.90;;;;;;4991725;28;20200;-76
2023/07/09 00:52:23;;;;;;;1.73;0.80;;;16.90;99.90;;;;;;4991510;28;20281;-76
2023/07/09 00:54:57;;;;;;;0.73;0.40;;;17.00;99.90;;;;;;4975115;28;20227;-77
2023/07/09 00:57:30;;;;;;;1.80;0.50;;;17.00;99.90;;;;;;4992270;28;20207;-77
2023/07/09 01:00:09;;;;;;;1.17;0.40;;;17.00;99.90;;;;;;4988206;28;20230;-77
2023/07/09 01:02:44;;;;;;;1.05;0.40;;;17.00;99.90;;;;;;4982159;28;20191;-77
2023/07/09 01:05:17;;;;;;;2.17;0.52;;;17.20;99.90;;;;;;4990772;28;20572;-77
2023/07/09 01:07:48;;;;;;;0.40;0.30;;;17.20;99.90;;;;;;4990497;28;20199;-75
2023/07/09 01:10:22;;;;;;;1.02;0.40;;;17.30;99.90;;;;;;4986007;28;20192;-75
2023/07/09 01:12:53;;;;;;;1.27;0.40;;;17.30;99.90;;;;;;4992406;28;20203;-78
2023/07/09 01:15:25;;;;;;;1.00;0.40;;;17.40;99.90;;;;;;4991315;28;20233;-75
2023/07/09 01:17:56;;;;;;;1.67;0.40;;;17.40;99.90;;;;;;4991823;28;20203;-76
2023/07/09 01:20:29;;;;;;;0.82;0.47;;;17.50;99.90;;;;;;4992323;28;20226;-78
2023/07/09 01:23:02;;;;;;;2.20;0.50;;;17.50;99.90;;;;;;4989951;28;20200;-76
2023/07/09 01:25:33;;;;;;;1.00;0.50;;;17.60;99.90;;;;;;4992036;28;20227;-77
2023/07/09 01:28:04;;;;;;;1.45;0.63;;;17.60;99.90;;;;;;4991135;28;20204;-77
2023/07/09 01:30:38;;;;;;;1.25;0.50;;;17.80;99.90;;;;;;4989876;28;20196;-78
2023/07/09 01:33:10;;;;;;;2.05;0.68;;;17.90;99.90;;;;;;4987843;28;20294;-74
2023/07/09 01:35:43;;;;;;;1.27;0.50;;;18.00;99.90;;;;;;4987205;28;20208;-77
2023/07/09 01:38:16;;;;;;;2.33;0.30;;;17.90;99.90;;;;;;4986802;28;20257;-78
2023/07/09 01:40:47;;;;;;;1.55;0.50;;;17.90;99.90;;;;;;4989198;28;20203;-75
2023/07/09 01:43:18;;;;;;;1.55;0.40;;;17.90;99.90;;;;;;4990363;28;20540;-76
2023/07/09 01:45:50;;;;;;;1.08;0.47;;;18.00;99.90;;;;;;4991138;28;20731;-76
2023/07/09 01:48:24;;;;;;;1.25;0.50;;;18.00;99.90;;;;;;4994840;28;20667;-76
2023/07/09 01:50:56;;;;;;;1.85;0.40;;;18.00;99.90;;;;;;4995585;28;20199;-76
2023/07/09 01:53:30;;;;;;;1.75;0.60;;;18.10;99.90;;;;;;4996798;28;20594;-77
2023/07/09 01:56:01;;;;;;;2.00;0.70;;;18.00;99.90;;;;;;4996919;28;20277;-76
2023/07/09 01:58:33;;;;;;;2.08;0.63;;;18.20;99.90;;;;;;4995845;28;20659;-75
2023/07/09 02:01:04;;;;;;;2.55;0.60;;;18.20;99.90;;;;;;4995988;28;20238;-77
2023/07/09 02:03:35;;;;;;;1.95;0.60;;;18.20;99.90;;;;;;4995688;28;20202;-78
2023/07/09 02:06:09;;;;;;;2.08;0.52;;;18.30;99.90;;;;;;4995632;28;20222;-76
2023/07/09 02:08:42;;;;;;;2.70;0.70;;;18.30;99.90;;;;;;4995170;28;20222;-76
2023/07/09 02:11:13;;;;;;;3.20;0.70;;;18.30;99.90;;;;;;4995345;28;20195;-77
2023/07/09 02:13:44;;;;;;;1.55;0.80;;;18.40;99.90;;;;;;4995598;28;20191;-78
2023/07/09 02:16:15;;;;;;;1.33;0.50;;;18.60;99.90;;;;;;4995475;28;20537;-78
2023/07/09 02:18:46;;;;;;;1.98;0.60;;;18.70;99.90;;;;;;4995482;28;20198;-77
2023/07/09 02:21:17;;;;;;;3.35;0.65;;;18.80;99.90;;;;;;4995369;28;20187;-78
2023/07/09 02:23:51;;;;;;;2.70;0.50;;;18.80;99.90;;;;;;4995229;28;20291;-79
2023/07/09 02:26:22;;;;;;;2.15;0.70;;;18.80;99.90;;;;;;4995016;28;20227;-77
2023/07/09 02:28:53;;;;;;;2.05;0.52;;;18.90;99.90;;;;;;4995242;28;20195;-76
2023/07/09 02:31:24;;;;;;;2.10;0.50;;;18.80;99.90;;;;;;4995167;28;20219;-77
2023/07/09 02:33:55;;;;;;;1.70;0.60;;;18.70;99.90;;;;;;4995220;28;20636;-74
2023/07/09 02:36:27;;;;;;;3.80;0.75;;;18.70;99.90;;;;;;4995535;28;20188;-74
2023/07/09 02:39:00;;;;;;;1.73;0.70;;;18.70;99.90;;;;;;4994998;28;20199;-80
2023/07/09 02:41:31;;;;;;;1.60;0.50;;;18.70;99.90;;;;;;4994600;28;20667;-76
2023/07/09 02:44:02;;;;;;;3.15;0.70;;;18.70;99.90;;;;;;4995040;28;20188;-76
2023/07/09 02:46:33;;;;;;;2.45;0.70;;;18.80;99.90;;;;;;4976018;28;20576;-75
2023/07/09 02:49:05;;;;;;;1.58;0.50;;;18.80;99.90;;;;;;4975560;28;20203;-75
2023/07/09 02:51:37;;;;;;;1.38;0.60;;;18.80;99.90;;;;;;4975509;28;20196;-75
2023/07/09 02:54:10;;;;;;;1.65;0.50;;;18.70;99.90;;;;;;4975541;28;20224;-77
2023/07/09 02:56:41;;;;;;;1.48;0.50;;;18.70;99.90;;;;;;4975133;28;20552;-77
2023/07/09 02:59:13;;;;;;;1.50;0.57;;;18.80;99.90;;;;;;4990031;28;20670;-77
2023/07/09 03:01:44;;;;;;;1.98;0.50;;;18.90;99.90;;;;;;4901990;28;2707922;-76
2023/07/09 03:04:16;;;;;;;1.13;0.60;;;18.90;99.90;;;;;;4996324;28;20191;-77
2023/07/09 03:06:47;;;;;;;2.30;0.65;;;18.90;99.90;;;;;;4995633;28;20237;-75
2023/07/09 03:09:20;;;;;;;2.45;0.73;;;18.80;99.90;;;;;;4995518;28;20283;-76
2023/07/09 03:11:51;;;;;;;2.08;1.23;;;18.70;99.90;;;;;;4995566;28;20195;-76
2023/07/09 03:14:22;;;;;;;3.78;0.60;;;18.80;99.90;;;;;;4995379;28;20198;-78
2023/07/09 03:16:53;;;;;;;3.47;0.93;;;18.80;99.90;;;;;;4995580;28;20195;-75
2023/07/09 03:19:25;;;;;;;1.35;0.50;;;18.80;99.90;;;;;;4995433;28;20192;-79
2023/07/09 03:21:56;;;;;;;0.88;0.52;;;18.80;99.90;;;;;;4995676;28;20208;-77
2023/07/09 03:24:29;;;;;;;1.33;0.60;;;18.90;99.90;;;;;;4995226;28;20192;-78
2023/07/09 03:27:01;;;;;;;2.30;0.65;;;18.90;99.90;;;;;;4995289;28;20227;-77
2023/07/09 03:29:32;;;;;;;1.13;0.60;;;18.90;99.90;;;;;;4995278;28;20198;-77
2023/07/09 03:32:03;;;;;;;1.15;0.50;;;18.90;99.90;;;;;;4995067;28;20207;-74
2023/07/09 03:34:34;;;;;;;1.70;0.70;;;18.90;99.90;;;;;;4995260;28;20204;-75
2023/07/09 03:37:06;;;;;;;1.90;0.47;;;18.90;99.90;;;;;;4995167;28;20202;-77
2023/07/09 03:39:39;;;;;;;2.28;0.40;;;18.80;99.90;;;;;;4994880;28;20196;-77
2023/07/09 03:42:10;;;;;;;1.70;0.60;;;18.80;99.90;;;;;;4995026;28;20206;-76
2023/07/09 03:44:42;;;;;;;1.60;0.50;;;18.90;99.90;;;;;;4990920;28;20561;-74
2023/07/09 03:47:13;;;;;;;0.80;0.45;;;18.80;99.90;;;;;;4975769;28;20220;-78
2023/07/09 03:49:44;;;;;;;2.50;0.52;;;18.80;99.90;;;;;;4987048;28;20208;-77
2023/07/09 03:52:16;;;;;;;1.58;0.50;;;18.80;99.90;;;;;;4994864;28;20626;-76
2023/07/09 03:54:49;;;;;;;0.73;0.30;;;18.80;99.90;;;;;;4994561;28;20314;-76
2023/07/09 03:57:20;;;;;;;1.30;0.40;;;18.70;99.90;;;;;;4994777;28;20286;-76
2023/07/09 03:59:51;;;;;;;3.20;0.60;;;18.80;99.90;;;;;;4994836;28;20192;-75
2023/07/09 04:02:22;;;;;;;2.97;0.50;;;18.90;99.90;;;;;;4995036;28;20203;-79
2023/07/09 04:04:53;;;;;;;1.05;0.40;;;18.90;99.90;;;;;;4994654;28;20229;-77
2023/07/09 04:07:24;;;;;;;1.60;0.52;;;18.90;99.90;;;;;;4994491;28;20219;-77
2023/07/09 04:09:58;;;;;;;1.38;0.85;;;19.00;99.90;;;;;;4994195;28;20239;-74
2023/07/09 04:12:29;;;;;;;2.63;0.50;;;18.90;99.90;;;;;;4994421;28;20202;-75
2023/07/09 04:15:00;;;;;;;1.50;0.55;;;18.80;99.90;;;;;;4994434;28;20202;-75
2023/07/09 04:17:31;;;;;;;1.45;0.40;;;18.80;99.90;;;;;;4994283;28;20283;-75
2023/07/09 04:20:05;;;;;;;0.93;0.60;;;18.70;99.90;;;;;;4994621;28;20192;-76
2023/07/09 04:22:36;;;;;;;0.77;0.40;;;18.80;99.90;;;;;;4993891;28;20211;-77
2023/07/09 04:25:12;;;;;;;1.73;0.52;;;18.80;99.90;;;;;;4994194;28;20192;-76
2023/07/09 04:27:43;;;;;;;1.70;0.40;;;18.80;99.90;;;;;;4994182;28;20222;-76
2023/07/09 04:30:16;;;;;;;2.38;0.50;;;18.80;99.90;;;;;;4994262;28;20650;-77
2023/07/09 04:32:48;;;;;;;1.52;0.50;;;18.80;99.90;;;;;;4994123;28;20195;-76
2023/07/09 04:35:19;;;;;;;2.45;0.60;;;18.80;99.90;;;;;;4994118;28;20192;-76
2023/07/09 04:37:50;;;;;;;1.70;0.50;;;18.90;99.90;;;;;;4993976;28;20195;-77
2023/07/09 04:40:23;;;;;;;1.15;0.47;;;18.90;99.90;;;;;;4994534;28;20611;-76
2023/07/09 04:42:54;;;;;;;0.98;0.50;;;18.90;99.90;;;;;;4994087;28;20191;-76
2023/07/09 04:45:25;;;;;;;1.90;0.47;;;18.90;99.90;;;;;;4988100;28;20209;-77
2023/07/09 04:47:56;;;;;;;2.17;0.50;;;18.90;99.90;;;;;;4977395;28;20684;-77
2023/07/09 04:50:28;;;;;;;1.80;0.70;;;18.80;99.90;;;;;;4993695;28;20215;-77
2023/07/09 04:52:59;;;;;;;1.13;0.57;;;18.90;99.90;;;;;;4993951;28;20227;-76
2023/07/09 04:55:32;;;;;;;1.52;0.50;;;19.00;99.90;;;;;;4993893;28;20191;-77
2023/07/09 04:58:03;;;;;;;1.90;0.52;;;19.00;99.90;;;;;;4994026;28;20213;-77
2023/07/09 05:00:34;;;;;;;1.05;0.43;;;18.90;99.90;;;;;;4993683;28;20242;-77
2023/07/09 05:03:05;;;;;;;1.50;0.40;;;18.90;99.90;;;;;;4993985;28;20191;-77
2023/07/09 05:05:36;;;;;;;1.65;0.50;;;18.80;99.90;;;;;;4993745;28;20188;-78
2023/07/09 05:08:07;;;;;;;2.05;0.55;;;18.80;99.90;;;;;;4974423;28;20223;-78
2023/07/09 05:10:44;;;;;;;2.25;0.57;;;18.80;99.90;;;;;;4974330;28;20192;-78
2023/07/09 05:13:16;;;;;;;1.05;0.43;;;18.90;99.90;;;;;;4974536;28;20274;-76
2023/07/09 05:15:48;;;;;;;1.58;0.40;;;18.80;99.90;;;;;;4974353;28;20204;-75
2023/07/09 05:18:20;;;;;;;1.23;0.43;;;18.80;99.90;;;;;;4974628;28;20196;-76
2023/07/09 05:20:51;;;;;;;1.65;0.40;;;18.70;99.90;;;;;;4974497;28;20193;-77
2023/07/09 05:23:22;;;;;;;0.68;0.40;;;18.70;99.90;;;;;;4978107;28;20196;-77
2023/07/09 05:26:00;;;;;;;1.25;0.60;;;18.60;99.90;;;;;;4978095;28;20196;-79
2023/07/09 05:28:32;;;;;;;1.08;0.32;;;18.60;99.90;;;;;;4978103;28;20644;-77
2023/07/09 05:31:03;;;;;;;1.30;0.40;;;18.60;99.90;;;;;;4984086;28;20205;-77
2023/07/09 05:33:34;;;;;;;1.83;0.50;;;18.60;99.90;;;;;;4997432;28;20194;-76
2023/07/09 05:36:07;;;;;;;2.65;0.43;;;18.50;99.90;;;;;;4997272;28;20191;-77
2023/07/09 05:38:38;;;;;;;1.33;0.40;;;18.40;99.90;;;;;;4997377;28;20278;-75
2023/07/09 05:41:11;;;;;;;0.70;0.32;;;18.40;99.90;;;;;;4997511;28;20211;-77
2023/07/09 05:43:43;;;;;;;0.88;0.38;;;18.30;99.90;;;;;;4984935;28;20628;-77
2023/07/09 05:46:15;;;;;;;1.75;0.40;;;18.30;99.90;;;;;;4977754;28;20199;-77
2023/07/09 05:48:46;;;;;;;0.75;0.40;;;18.30;99.90;;;;;;4989534;28;20200;-76
2023/07/09 05:51:17;;;;;;;0.65;0.38;;;18.20;99.90;;;;;;4997145;28;20199;-77
2023/07/09 05:53:48;;;;;;;2.05;0.50;;;18.10;99.90;;;;;;4996998;28;20243;-77
2023/07/09 05:56:21;;;;;;;0.55;0.40;;;18.20;99.90;;;;;;4997052;28;20200;-77
2023/07/09 05:58:52;;;;;;;1.55;0.40;;;18.20;99.90;;;;;;4997004;28;20206;-77
2023/07/09 06:01:23;;;;;;;1.52;0.50;;;18.20;99.90;;;;;;4996762;28;20239;-77
2023/07/09 06:03:56;;;;;;;1.30;0.50;;;18.20;99.90;;;;;;4997026;28;20196;-76
2023/07/09 06:06:27;;;;;;;1.42;0.40;;;18.20;99.90;;;;;;4996651;28;20723;-78
2023/07/09 06:08:58;;;;;;;2.38;0.50;;;18.10;99.90;;;;;;4996777;28;20196;-78
2023/07/09 06:11:31;;;;;;;0.63;0.43;;;18.10;99.90;;;;;;4996521;28;20554;-78
2023/07/09 06:14:02;;;;;;;1.75;0.50;;;18.00;99.90;;;;;;4996643;28;20199;-79
2023/07/09 06:16:33;;;;;;;1.30;0.57;;;18.00;99.90;;;;;;4996646;28;20196;-78
2023/07/09 06:19:04;;;;;;;2.25;0.60;;;17.90;99.90;;;;;;4996669;28;20192;-77
2023/07/09 06:21:35;;;;;;;1.52;0.63;;;17.80;99.90;;;;;;4996325;28;20230;-77
2023/07/09 06:24:08;;;;;;;1.17;0.40;;;17.80;99.90;;;;;;4996514;28;20194;-77
2023/07/09 06:26:41;;;;;;;0.93;0.50;;;17.70;99.90;;;;;;4996558;28;20246;-77
2023/07/09 06:29:12;;;;;;;1.00;0.50;;;17.60;99.90;;;;;;4996815;28;20191;-77
2023/07/09 06:31:43;;;;;;;0.82;0.40;;;17.60;99.90;;;;;;4996230;28;20200;-78
2023/07/09 06:34:14;;;;;;;1.02;0.55;;;17.50;99.90;;;;;;4996204;28;20556;-76
2023/07/09 06:36:45;;;;;;;2.28;0.50;;;17.40;99.90;;;;;;4996505;28;20192;-76
2023/07/09 06:39:16;;;;;;;1.65;0.45;;;17.40;99.90;;;;;;4996127;28;20669;-79
2023/07/09 06:41:49;;;;;;;0.68;0.50;;;17.30;99.90;;;;;;4996598;28;20215;-77
2023/07/09 06:44:21;;;;;;;0.60;0.40;;;17.30;99.90;;;;;;4996131;28;20207;-75
2023/07/09 06:46:52;;;;;;;0.55;0.45;;;17.20;99.90;;;;;;4995925;28;20219;-76
2023/07/09 06:49:23;;;;;;;0.77;0.50;;;17.20;99.90;;;;;;4996102;28;20195;-79
2023/07/09 06:51:54;;;;;;;0.95;0.45;;;17.20;99.90;;;;;;4996091;28;20191;-76
2023/07/09 06:54:25;;;;;;;1.52;0.60;;;17.00;99.90;;;;;;4993749;28;20219;-76
2023/07/09 06:56:58;;;;;;;0.90;0.45;;;17.00;99.90;;;;;;4987927;28;20215;-76
2023/07/09 06:59:29;;;;;;;0.80;0.50;;;16.90;99.90;;;;;;4993630;28;20196;-76
2023/07/09 07:02:00;;;;;;;1.20;0.70;;;16.90;99.90;;;;;;4989972;28;20707;-76
2023/07/09 07:04:32;;;;;;;2.03;0.70;;;16.80;99.90;;;;;;4991746;28;20203;-76
2023/07/09 07:07:03;;;;;;;2.05;0.60;;;16.80;99.90;;;;;;4987567;28;20223;-77
2023/07/09 07:09:34;;;;;;;2.30;0.60;;;16.70;99.90;;;;;;4995942;28;20199;-76
2023/07/09 07:12:07;;;;;;;1.23;0.50;;;16.70;99.90;;;;;;4994685;28;20200;-77
2023/07/09 07:14:38;;;;;;;1.00;0.60;;;16.60;99.90;;;;;;4985093;28;20206;-77
2023/07/09 07:17:10;;;;;;;2.70;0.63;;;16.60;99.90;;;;;;4994282;28;20287;-76
2023/07/09 07:19:41;;;;;;;2.30;0.47;;;16.50;99.90;;;;;;4989214;28;20565;-77
2023/07/09 07:22:12;;;;;;;1.80;0.70;;;16.50;99.90;;;;;;4981814;28;20204;-77
2023/07/09 07:24:43;;;;;;;2.50;0.50;;;16.40;99.90;;;;;;4989132;28;20200;-76
2023/07/09 07:27:16;;;;;;;1.27;0.50;;;16.40;99.90;;;;;;4994244;28;20226;-77
2023/07/09 07:29:48;;;;;;;1.02;0.50;;;16.30;99.90;;;;;;4993227;28;20195;-77
2023/07/09 07:32:19;;;;;;;1.85;0.70;;;16.20;99.90;;;;;;4993988;28;20229;-77
2023/07/09 07:34:51;;;;;;;1.45;0.65;;;16.20;99.90;;;;;;4991782;28;20209;-77
2023/07/09 07:37:23;;;;;;;1.40;0.70;;;16.20;99.90;;;;;;4993392;28;20586;-76
2023/07/09 07:39:54;;;;;;;2.28;0.60;;;16.20;99.90;;;;;;4993790;28;20204;-74
2023/07/09 07:42:27;;;;;;;1.00;0.60;;;16.10;99.90;;;;;;4991818;28;20196;-74
2023/07/09 07:44:58;;;;;;;1.23;0.80;;;16.10;99.90;;;;;;4992858;28;20568;-73
2023/07/09 07:47:30;;;;;;;1.67;1.00;;;16.10;99.90;;;;;;4994548;28;20219;-75
2023/07/09 07:50:01;;;;;;;2.78;1.00;;;16.00;99.90;;;;;;4989824;28;20204;-75
2023/07/09 07:52:32;;;;;;;2.17;1.15;;;16.00;99.90;;;;;;4993549;28;20203;-75
2023/07/09 07:55:03;;;;;;;1.75;1.20;;;15.90;99.90;;;;;;4994445;28;20211;-76
2023/07/09 07:57:37;;;;;;;1.95;1.20;;;15.90;99.90;;;;;;4993635;28;20207;-77
2023/07/09 08:00:09;;;;;;;2.15;1.08;;;15.90;99.90;;;;;;4990288;28;20231;-77
2023/07/09 08:02:40;;;;;;;2.65;1.20;;;15.90;99.90;;;;;;4992844;28;20195;-76
2023/07/09 08:05:11;;;;;;;4.20;1.30;;;15.80;99.90;;;;;;4990794;28;20556;-75
2023/07/09 08:07:42;;;;;;;2.03;1.20;;;15.80;99.90;;;;;;4993392;28;20686;-76
2023/07/09 08:10:15;;;;;;;1.95;1.10;;;15.70;99.90;;;;;;4993320;28;20238;-76
2023/07/09 08:12:48;;;;;;;1.70;1.20;;;15.70;99.90;;;;;;4991681;28;20561;-76
2023/07/09 08:15:19;;;;;;;3.28;1.60;;;15.60;99.90;;;;;;4988807;28;20199;-77
2023/07/09 08:17:50;;;;;;;3.33;1.73;;;15.60;99.90;;;;;;4992557;28;20207;-77
2023/07/09 08:20:22;;;;;;;2.80;1.77;;;15.60;99.90;;;;;;4990932;28;20202;-76
2023/07/09 08:22:53;;;;;;;2.88;1.80;;;15.50;99.90;;;;;;4992693;28;20698;-74
2023/07/09 08:25:24;;;;;;;3.80;2.25;;;15.50;99.90;;;;;;4993243;28;20656;-75
2023/07/09 08:27:57;;;;;;;4.53;2.30;;;15.40;99.90;;;;;;4991026;28;20262;-77
2023/07/09 08:30:28;;;;;;;3.40;2.30;;;15.40;99.90;;;;;;4990334;28;20706;-77
2023/07/09 08:33:00;;;;;;;4.38;2.15;;;15.40;99.90;;;;;;4992762;28;20202;-77
2023/07/09 08:35:32;;;;;;;5.65;2.60;;;15.30;99.90;;;;;;4993080;28;20682;-77
2023/07/09 08:38:03;;;;;;;3.25;2.10;;;15.30;99.90;;;;;;4991592;28;20209;-78
2023/07/09 08:40:34;;;;;;;3.20;2.30;;;15.30;99.90;;;;;;4992143;28;20206;-77
2023/07/09 08:43:22;;;;;;;3.88;2.40;;;15.20;99.90;;;;;;4992904;28;20206;-76
2023/07/09 08:46:00;;;;;;;2.90;1.83;;;15.20;99.90;;;;;;4990031;28;20211;-76
2023/07/09 08:48:35;;;;;;;3.58;1.83;;;15.10;99.90;;;;;;4992016;28;20223;-76
2023/07/09 08:51:12;;;;;;;3.05;1.98;;;15.10;99.90;;;;;;4987861;28;20203;-75
2023/07/09 08:53:48;;;;;;;4.25;2.00;;;15.10;99.90;;;;;;4992146;28;20229;-77
2023/07/09 08:56:20;;;;;;;3.13;2.00;;;15.10;99.90;;;;;;4992466;28;20199;-76
2023/07/09 08:58:56;;;;;;;3.88;2.33;;;15.10;99.90;;;;;;4991915;28;20254;-76
2023/07/09 09:01:30;;;;;;;4.28;2.42;;;15.00;99.90;;;;;;4992410;28;20231;-77
2023/07/09 09:04:06;;;;;;;2.90;2.20;;;15.00;99.90;;;;;;4992195;28;20198;-77
2023/07/09 09:06:37;;;;;;;2.90;2.00;;;14.90;99.90;;;;;;4978362;28;20659;-76
2023/07/09 09:09:24;;;;;;;2.97;1.60;;;14.90;99.90;;;;;;4979715;28;20229;-76
2023/07/09 09:12:01;;;;;;;3.05;1.65;;;14.90;99.90;;;;;;4990061;28;20659;-75
2023/07/09 09:14:36;;;;;;;2.10;1.30;;;14.80;99.90;;;;;;4991279;28;20200;-77
2023/07/09 09:17:14;;;;;;;2.78;1.40;;;14.80;99.90;;;;;;4991238;28;20566;-77
2023/07/09 09:19:50;;;;;;;2.45;1.50;;;14.70;99.90;;;;;;4992122;28;20195;-76
2023/07/09 09:22:27;;;;;;;2.80;1.40;;;14.70;99.90;;;;;;4991987;28;20198;-77
2023/07/09 09:25:05;;;;;;;2.45;1.45;;;14.70;99.90;;;;;;4991216;28;20204;-75
2023/07/09 09:27:38;;;;;;;2.20;1.40;;;14.60;99.90;;;;;;4990929;28;20207;-76
2023/07/09 09:30:20;;;;;;;1.63;1.23;;;14.60;99.90;;;;;;4992487;28;20663;-76
2023/07/09 09:32:56;;;;;;;2.28;1.52;;;14.50;99.90;;;;;;4991849;28;20228;-74
2023/07/09 09:35:32;;;;;;;2.75;1.80;;;14.50;99.90;;;;;;4993480;28;20655;-76
2023/07/09 09:38:04;;;;;;;3.60;2.42;;;14.40;99.90;;;;;;4984722;28;20238;-75
2023/07/09 09:40:39;;;;;;;3.88;2.35;;;14.40;99.90;;;;;;4990826;28;20638;-75
2023/07/09 09:43:19;;;;;;;5.05;2.50;;;14.40;99.90;;;;;;4991905;28;20202;-77
2023/07/09 09:45:53;;;;;;;4.53;2.38;;;14.40;99.90;;;;;;4993184;28;20283;-76
2023/07/09 09:48:32;;;;;;;5.45;2.58;;;14.30;99.90;;;;;;4993369;28;20219;-76
2023/07/09 09:51:07;;;;;;;4.22;2.70;;;14.30;99.90;;;;;;4993240;28;20199;-77
2023/07/09 09:53:49;;;;;;;4.60;2.55;;;14.20;99.90;;;;;;4991086;28;20691;-76
2023/07/09 09:56:28;;;;;;;5.80;2.97;;;14.10;99.90;;;;;;4992973;28;20655;-76
2023/07/09 09:59:01;;;;;;;4.00;2.15;;;14.00;99.90;;;;;;4992970;28;20291;-75
2023/07/09 10:01:37;;;;;;;4.18;2.53;;;13.90;99.90;;;;;;4990751;28;20600;-76
2023/07/09 10:04:08;;;;;;;3.33;2.13;;;13.90;99.90;;;;;;4993323;28;20207;-76
2023/07/09 10:06:42;;;;;;;4.00;2.25;;;13.90;99.90;;;;;;4992671;28;20664;-76
2023/07/09 10:09:22;;;;;;;4.10;2.25;;;13.90;99.90;;;;;;4996435;28;20223;-76
2023/07/09 10:11:59;;;;;;;4.22;2.78;;;13.90;99.90;;;;;;4994616;28;20207;-75
2023/07/09 10:14:40;;;;;;;3.47;1.98;;;13.90;99.90;;;;;;4992641;28;20206;-75
2023/07/09 10:17:23;;;;;;;5.65;2.53;;;13.90;99.90;;;;;;4996297;28;20199;-76
2023/07/09 10:19:59;;;;;;;3.42;1.98;;;13.80;99.90;;;;;;4995043;28;20199;-75
2023/07/09 10:22:45;;;;;;;4.43;2.50;;;13.80;99.90;;;;;;4996793;28;20199;-78
2023/07/09 10:25:27;;;;;;;4.85;2.83;;;13.80;99.90;;;;;;4995966;28;20203;-76
2023/07/09 10:28:13;;;;;;;4.35;2.80;;;13.70;99.90;;;;;;4996482;28;20246;-76
2023/07/09 10:30:53;;;;;;;5.03;2.42;;;13.70;99.90;;;;;;4996234;28;20203;-76
2023/07/09 10:33:31;;;;;;;5.00;2.50;;;13.80;99.90;;;;;;4995266;28;20214;-75
2023/07/09 10:36:15;;;;;;;4.13;2.03;;;13.80;99.90;;;;;;4995018;28;20554;-75
2023/07/09 10:38:54;;;;;;;3.67;2.30;;;13.80;99.90;;;;;;4994985;28;20200;-75
2023/07/09 10:41:26;;;;;;;3.67;2.10;;;13.80;99.90;;;;;;4994438;28;20283;-76
2023/07/09 10:44:05;;;;;;;4.55;2.30;;;13.80;99.90;;;;;;4995667;28;20211;-75
2023/07/09 10:46:39;;;;;;;6.78;2.28;;;13.70;99.90;;;;;;4995069;28;20566;-77
2023/07/09 10:49:15;;;;;;;4.13;2.58;;;13.90;99.90;;;;;;4995701;28;20218;-76
2023/07/09 10:51:51;;;;;;;3.10;2.22;;;13.90;99.90;;;;;;4995492;28;20285;-76
2023/07/09 10:54:31;;;;;;;3.80;2.30;;;13.90;99.90;;;;;;4995641;28;20238;-75
2023/07/09 10:57:11;;;;;;;4.00;2.22;;;13.90;99.90;;;;;;4995479;28;20196;-77
2023/07/09 10:59:45;;;;;;;4.05;2.30;;;13.90;99.90;;;;;;4994666;28;20636;-74
2023/07/09 11:02:26;;;;;;;3.42;2.20;;;13.80;99.90;;;;;;4983746;28;20242;-74
2023/07/09 11:05:01;;;;;;;4.35;2.13;;;13.90;99.90;;;;;;4992528;28;20632;-75
2023/07/09 11:07:35;;;;;;;3.70;2.08;;;13.90;99.90;;;;;;4993678;28;20278;-74
2023/07/09 11:10:10;;;;;;;2.60;1.58;;;13.90;99.90;;;;;;4995296;28;20223;-75
2023/07/09 11:12:46;;;;;;;2.53;1.70;;;13.90;99.90;;;;;;4995567;28;20199;-74
2023/07/09 11:15:21;;;;;;;5.55;2.75;;;13.90;99.90;;;;;;4993779;28;20207;-75
2023/07/09 11:17:52;;;;;;;4.03;2.17;;;13.90;99.90;;;;;;4994626;28;20203;-75
2023/07/09 11:20:29;;;;;;;6.78;2.50;;;13.90;99.90;;;;;;4994674;28;20202;-75
2023/07/09 11:23:06;;;;;;;4.03;2.40;;;13.80;99.90;;;;;;4995043;28;20564;-75
2023/07/09 11:25:46;;;;;;;3.88;2.30;;;13.80;99.90;;;;;;4992759;28;20195;-74
2023/07/09 11:28:18;;;;;;;3.65;2.10;;;13.80;99.90;;;;;;4989849;28;20199;-74
2023/07/09 11:30:54;;;;;;;3.25;2.08;;;13.80;99.90;;;;;;4993991;28;20215;-75
2023/07/09 11:33:31;;;;;;;3.83;2.28;;;13.70;99.90;;;;;;4995142;28;20195;-74
2023/07/09 11:36:15;;;;;;;3.42;2.08;;;13.70;99.90;;;;;;4994468;28;20206;-75
2023/07/09 11:38:48;;;;;;;3.50;2.17;;;13.60;99.90;;;;;;4994999;28;20210;-75
2023/07/09 11:41:41;;;;;;;4.53;1.73;;;13.60;99.90;;;;;;4993893;28;20204;-75
2023/07/09 11:44:20;;;;;;;5.88;2.20;;;13.50;99.90;;;;;;4988986;28;20204;-75
2023/07/09 11:47:11;;;;;;;4.65;1.88;;;13.50;99.90;;;;;;4994929;28;20211;-74
2023/07/09 11:49:52;;;;;;;3.53;1.90;;;13.30;99.90;;;;;;4994765;28;20266;-74
2023/07/09 11:52:31;;;;;;;2.90;1.85;;;13.30;99.90;;;;;;4993342;28;20196;-74
2023/07/09 11:55:04;;;;;;;4.82;1.77;;;13.20;99.90;;;;;;4989557;28;20200;-74
2023/07/09 11:57:35;;;;;;;4.30;2.13;;;13.20;99.90;;;;;;4989508;28;20543;-73
2023/07/09 12:00:07;;;;;;;5.68;2.78;;;13.20;99.90;;;;;;4988777;28;20231;-74
2023/07/09 12:02:38;;;;;;;4.05;2.20;;;13.20;99.90;;;;;;4994644;28;20204;-74
2023/07/09 12:05:10;;;;;;;5.97;2.08;;;13.20;99.90;;;;;;4993905;28;20200;-74
2023/07/09 12:07:43;;;;;;;4.45;2.00;;;13.10;99.90;;;;;;4994223;28;20283;-75
2023/07/09 12:10:23;;;;;;;3.75;1.90;;;13.10;99.90;;;;;;4993292;28;20226;-74
2023/07/09 12:12:59;;;;;;;4.40;2.20;;;13.00;99.90;;;;;;4991980;28;20651;-75
2023/07/09 12:15:31;;;;;;;4.82;2.30;;;12.90;99.90;;;;;;4990662;28;20195;-74
2023/07/09 12:18:04;;;;;;;4.20;2.10;;;12.80;99.90;;;;;;4991786;28;20200;-73
2023/07/09 12:20:38;;;;;;;5.07;1.92;;;12.70;99.90;;;;;;4990938;28;20323;-74
2023/07/09 12:23:25;;;;;;;4.18;2.30;;;12.70;99.90;;;;;;4988742;28;20199;-74
2023/07/09 12:25:57;;;;;;;5.40;2.67;;;12.60;99.90;;;;;;4993441;28;20202;-75
2023/07/09 12:28:29;;;;;;;5.65;2.35;;;12.60;99.90;;;;;;4990666;28;20229;-75
2023/07/09 12:31:00;;;;;;;6.10;2.33;;;12.50;99.90;;;;;;4991095;28;20222;-74
2023/07/09 12:33:31;;;;;;;3.22;2.00;;;12.50;99.90;;;;;;4993446;28;20199;-74
2023/07/09 12:36:04;;;;;;;3.72;1.83;;;12.60;99.90;;;;;;4991890;28;20199;-74
2023/07/09 12:38:49;;;;;;;3.13;1.98;;;12.60;99.90;;;;;;4993280;28;20196;-74
2023/07/09 12:41:25;;;;;;;4.93;2.10;;;12.70;99.90;;;;;;4989753;28;20655;-74
2023/07/09 12:43:57;;;;;;;5.28;2.10;;;12.80;99.90;;;;;;4989387;28;20203;-74
2023/07/09 12:46:29;;;;;;;3.15;2.00;;;12.80;99.90;;;;;;4991996;28;20206;-74
2023/07/09 12:49:01;;;;;;;3.63;1.88;;;12.80;99.90;;;;;;4991972;28;20585;-73
2023/07/09 12:51:34;;;;;;;2.58;1.73;;;12.90;99.90;;;;;;4991457;28;20199;-74
2023/07/09 12:54:17;;;;;;;2.65;1.95;;;12.90;99.90;;;;;;4992631;28;20227;-74
2023/07/09 12:56:49;;;;;;;3.85;2.30;;;12.90;99.90;;;;;;4990249;28;20230;-74
2023/07/09 12:59:25;;;;;;;3.58;1.88;;;12.80;99.90;;;;;;4992884;28;20586;-75
2023/07/09 13:02:03;;;;;;;4.53;2.40;;;12.80;99.90;;;;;;4992596;28;20238;-75
2023/07/09 13:04:35;;;;;;;4.32;1.83;;;12.70;99.90;;;;;;4991654;28;20199;-74
2023/07/09 13:07:07;;;;;;;5.13;2.28;;;12.60;99.90;;;;;;4993185;28;20206;-74
2023/07/09 13:09:50;;;;;;;5.22;2.80;;;12.50;99.90;;;;;;4992681;28;20246;-75
2023/07/09 13:12:21;;;;;;;4.60;2.20;;;12.40;99.90;;;;;;4983350;28;20208;-74
2023/07/09 13:14:57;;;;;;;3.70;1.95;;;12.30;99.90;;;;;;4991396;28;20226;-75
2023/07/09 13:17:32;;;;;;;3.13;1.85;;;12.30;99.90;;;;;;4993739;28;20226;-74
2023/07/09 13:20:04;;;;;;;2.45;1.60;;;12.30;99.90;;;;;;4992001;28;20651;-75